Time;durP1;ratioP1;P1;durP2;ratioP2;P2;SDS_P1;SDS_P2;PMS_P1;PMS_P2;Temp;Humidity;BMP_temperature;BMP_pressure;BME280_temperature;BME280_humidity;BME280_pressure;Samples;Min_cycle;Max_cycle;Signal;HPM_P1;HPM_P2
2021/08/24 05:33:27;;;;;;;8.55;5.60;;;;;;;;;;6281769;22;20035;-84
2021/08/24 05:35:53;;;;;;;6.53;5.87;;;;;;;;;;6285513;22;20063;-83
2021/08/24 05:38:20;;;;;;;7.38;5.72;;;;;;;;;;6283129;22;20000;-82
2021/08/24 05:40:46;;;;;;;7.43;5.75;;;;;;;;;;6284408;22;20000;-82
2021/08/24 05:43:11;;;;;;;6.43;5.82;;;;;;;;;;6281330;22;20057;-82
2021/08/24 05:45:38;;;;;;;6.50;5.80;;;;;;;;;;6279615;22;20045;-83
2021/08/24 05:48:04;;;;;;;5.97;5.32;;;;;;;;;;6281527;22;20015;-82
2021/08/24 05:50:30;;;;;;;6.38;5.47;;;;;;;;;;6286559;22;19991;-82
2021/08/24 05:52:57;;;;;;;6.93;5.60;;;;;;;;;;6294625;22;20007;-82
2021/08/24 05:55:24;;;;;;;5.75;5.10;;;;;;;;;;6283298;22;20003;-82
2021/08/24 05:57:52;;;;;;;6.90;5.47;;;;;;;;;;6288761;22;20006;-82
2021/08/24 06:00:20;;;;;;;6.32;5.45;;;;;;;;;;6286157;22;19995;-82
2021/08/24 06:02:50;;;;;;;6.30;5.70;;;;;;;;;;6287200;22;20057;-82
2021/08/24 06:05:27;;;;;;;7.97;5.70;;;;;;;;;;6287530;22;20022;-82
2021/08/24 06:08:10;;;;;;;5.95;5.35;;;;;;;;;;6289859;22;20012;-83
2021/08/24 06:10:47;;;;;;;5.72;5.13;;;;;;;;;;6287761;22;20039;-82
2021/08/24 06:13:14;;;;;;;6.65;5.88;;;;;;;;;;6288326;22;20022;-83
2021/08/24 06:15:49;;;;;;;8.30;5.25;;;;;;;;;;6283680;22;20038;-83
2021/08/24 06:18:15;;;;;;;6.88;5.68;;;;;;;;;;6286416;22;20070;-83
2021/08/24 06:20:42;;;;;;;6.65;5.72;;;;;;;;;;6284229;22;20440;-82
2021/08/24 06:23:10;;;;;;;7.80;5.85;;;;;;;;;;6289520;22;20049;-82
2021/08/24 06:25:37;;;;;;;7.25;6.10;;;;;;;;;;6283987;22;20341;-82
2021/08/24 06:28:23;;;;;;;6.22;5.60;;;;;;;;;;6285745;22;20452;-83
2021/08/24 06:30:52;;;;;;;9.10;5.55;;;;;;;;;;6289380;22;20002;-83
2021/08/24 06:33:47;;;;;;;7.50;5.68;;;;;;;;;;6293541;22;20042;-83
2021/08/24 06:36:25;;;;;;;5.95;5.30;;;;;;;;;;6284819;22;20007;-81
2021/08/24 06:39:23;;;;;;;5.82;5.15;;;;;;;;;;6293166;22;20441;-83
2021/08/24 06:48:42;;;;;;;7.38;5.50;;;;;;;;;;6292725;22;20016;-84
2021/08/24 06:51:15;;;;;;;6.60;5.15;;;;;;;;;;6243656;22;20044;-83
2021/08/24 06:53:57;;;;;;;8.07;5.22;;;;;;;;;;6267340;22;20015;-83
2021/08/24 06:56:42;;;;;;;6.18;5.57;;;;;;;;;;6260197;23;19995;-84
2021/08/24 07:16:13;;;;;;;5.97;4.78;;;;;;;;;;6275403;22;20015;-83
2021/08/24 07:56:09;;;;;;;5.28;4.65;;;;;;;;;;6276331;22;20003;-83
2021/08/24 12:51:30;;;;;;;5.80;3.10;;;;;;;;;;6242886;22;20079;31
2021/08/24 22:23:14;;;;;;;2.37;1.70;;;;;;;;;;5540242;22;16487565;-83
2021/08/24 22:26:11;;;;;;;3.13;1.73;;;;;;;;;;6148033;23;20041;-83
2021/08/24 22:28:49;;;;;;;2.55;1.80;;;;;;;;;;6112414;23;20016;-83
2021/08/24 22:31:28;;;;;;;3.10;1.80;;;;;;;;;;6117344;23;20026;-83
2021/08/24 22:34:36;;;;;;;4.25;1.92;;;;;;;;;;6095440;23;20002;-84
2021/08/24 22:37:24;;;;;;;2.78;2.10;;;;;;;;;;6118776;23;19999;-85
2021/08/24 22:40:56;;;;;;;2.05;1.70;;;;;;;;;;6007601;23;20030;-82
2021/08/24 22:44:24;;;;;;;2.53;1.88;;;;;;;;;;6039309;23;20037;-83
2021/08/24 22:47:00;;;;;;;5.70;1.85;;;;;;;;;;5949751;24;20001;-83
2021/08/24 22:49:26;;;;;;;2.72;2.05;;;;;;;;;;5943951;24;20077;-83
2021/08/24 22:51:55;;;;;;;4.80;1.67;;;;;;;;;;5944537;24;20039;-83
2021/08/24 22:54:22;;;;;;;4.20;2.20;;;;;;;;;;5942857;24;20025;-83
2021/08/24 22:57:40;;;;;;;2.15;1.90;;;;;;;;;;5980183;24;20016;-83
2021/08/24 23:00:31;;;;;;;2.72;1.90;;;;;;;;;;6004695;24;20012;-82
2021/08/24 23:03:59;;;;;;;4.97;2.20;;;;;;;;;;6002818;23;20019;-84
2021/08/24 23:07:32;;;;;;;5.05;2.17;;;;;;;;;;5999385;24;20012;-83
2021/08/24 23:10:43;;;;;;;4.85;2.10;;;;;;;;;;6005742;24;20020;-83
2021/08/24 23:13:53;;;;;;;3.97;2.22;;;;;;;;;;6004549;24;20057;-83
2021/08/24 23:30:55;;;;;;;3.60;2.00;;;;;;;;;;6300651;22;20042;-84
2021/08/24 23:37:25;;;;;;;7.93;2.20;;;;;;;;;;6304652;22;20026;-84
2021/08/24 23:40:46;;;;;;;2.50;1.95;;;;;;;;;;6290405;22;20068;-84
2021/08/24 23:58:31;;;;;;;2.20;1.77;;;;;;;;;;6305612;22;20004;-83
